createdAt,value
2019-03-24T00:01:41.419Z,64.37
2019-03-24T00:04:10.043Z,68.80
2019-03-24T00:06:40.199Z,59.23
2019-03-24T00:09:10.495Z,60.38
2019-03-24T00:11:40.712Z,59.25
2019-03-24T00:14:10.900Z,63.98
2019-03-24T00:16:41.258Z,60.12
2019-03-24T00:19:11.409Z,51.50
2019-03-24T00:21:50.806Z,51.30
2019-03-24T00:24:20.403Z,56.05
2019-03-24T00:26:49.912Z,55.58
2019-03-24T00:29:19.519Z,57.30
2019-03-24T00:31:49.163Z,55.00
2019-03-24T00:34:18.771Z,56.83
2019-03-24T00:36:48.229Z,57.98
2019-03-24T00:39:17.722Z,50.45
2019-03-24T00:41:47.347Z,48.83
2019-03-24T00:44:16.894Z,48.13
2019-03-24T00:46:46.565Z,52.00
2019-03-24T00:49:16.253Z,47.20
2019-03-24T00:51:45.817Z,53.52
2019-03-24T00:54:15.418Z,50.10
2019-03-24T00:56:45.021Z,50.33
2019-03-24T00:59:14.514Z,53.25
2019-03-24T01:01:44.004Z,53.65
2019-03-24T01:04:13.546Z,51.55
2019-03-24T01:06:43.291Z,45.38
2019-03-24T01:09:12.899Z,51.48
2019-03-24T01:11:42.503Z,45.83
2019-03-24T01:14:12.058Z,49.30
2019-03-24T01:16:41.694Z,49.40
2019-03-24T01:19:11.174Z,54.20
2019-03-24T01:21:40.826Z,48.83
2019-03-24T01:24:10.461Z,50.20
2019-03-24T01:26:40.095Z,49.20
2019-03-24T01:29:09.746Z,45.95
2019-03-24T01:31:40.387Z,46.98
2019-03-24T01:34:14.243Z,45.28
2019-03-24T01:36:44.386Z,49.60
2019-03-24T01:39:14.455Z,45.70
2019-03-24T01:41:44.547Z,42.33
2019-03-24T01:44:14.638Z,44.45
2019-03-24T01:46:45.049Z,43.52
2019-03-24T01:49:15.068Z,44.30
2019-03-24T01:51:45.316Z,43.45
2019-03-24T01:54:15.547Z,43.80
2019-03-24T01:56:45.643Z,43.48
2019-03-24T01:59:16.237Z,48.65
2019-03-24T02:01:46.518Z,43.13
2019-03-24T02:04:16.882Z,45.78
2019-03-24T02:06:47.253Z,49.73
2019-03-24T02:09:17.695Z,41.10
2019-03-24T02:11:47.960Z,45.45
2019-03-24T02:14:20.330Z,46.15
2019-03-24T02:16:51.171Z,41.18
2019-03-24T02:19:21.685Z,45.40
2019-03-24T02:21:54.598Z,44.80
2019-03-24T02:24:25.018Z,43.60
2019-03-24T02:26:55.278Z,48.13
2019-03-24T02:29:25.267Z,43.35
2019-03-24T02:31:56.068Z,43.83
2019-03-24T02:34:26.087Z,45.52
2019-03-24T02:36:56.637Z,39.88
2019-03-24T02:39:29.427Z,44.75
2019-03-24T02:41:59.628Z,48.20
2019-03-24T02:44:29.949Z,52.35
2019-03-24T02:47:00.509Z,53.45
2019-03-24T02:49:30.733Z,53.25
2019-03-24T02:52:02.670Z,47.15
2019-03-24T02:54:33.026Z,51.48
2019-03-24T02:57:03.481Z,47.00
2019-03-24T02:59:33.981Z,55.00
2019-03-24T03:02:04.866Z,53.38
2019-03-24T03:04:35.858Z,54.03
2019-03-24T03:07:06.465Z,52.53
2019-03-24T03:09:36.915Z,48.05
2019-03-24T03:12:07.244Z,48.63
2019-03-24T03:14:37.334Z,49.77
2019-03-24T03:17:07.586Z,48.52
2019-03-24T03:19:38.087Z,43.20
2019-03-24T03:22:08.380Z,46.73
2019-03-24T03:24:39.126Z,47.95
2019-03-24T03:27:09.908Z,46.23
2019-03-24T03:29:40.221Z,49.10
2019-03-24T03:32:10.637Z,45.03
2019-03-24T03:34:40.756Z,45.67
2019-03-24T03:37:13.757Z,44.70
2019-03-24T03:39:44.677Z,41.08
2019-03-24T03:42:15.346Z,46.20
2019-03-24T03:44:46.064Z,44.42
2019-03-24T03:47:16.802Z,43.83
2019-03-24T03:49:47.342Z,45.88
2019-03-24T03:52:18.147Z,47.05
2019-03-24T03:54:48.279Z,43.60
2019-03-24T03:57:18.577Z,44.42
2019-03-24T03:59:48.894Z,42.05
2019-03-24T04:02:19.501Z,42.65
2019-03-24T04:04:49.928Z,40.12
2019-03-24T04:07:20.977Z,43.38
2019-03-24T04:09:51.725Z,38.63
2019-03-24T04:12:23.551Z,39.48
2019-03-24T04:14:53.606Z,42.17
2019-03-24T04:17:24.889Z,42.53
2019-03-24T04:19:55.311Z,40.05
2019-03-24T04:22:27.137Z,42.48
2019-03-24T04:24:57.443Z,41.85
2019-03-24T04:27:27.675Z,39.80
2019-03-24T04:29:58.061Z,39.58
2019-03-24T04:32:28.280Z,40.80
2019-03-24T04:35:04.340Z,40.52
2019-03-24T04:37:35.590Z,42.17
2019-03-24T04:40:06.912Z,39.00
2019-03-24T04:42:38.696Z,41.90
2019-03-24T04:45:09.087Z,30.52
2019-03-24T04:47:39.829Z,38.42
2019-03-24T04:50:10.673Z,40.20
2019-03-24T04:52:40.893Z,40.17
2019-03-24T04:55:11.632Z,38.78
2019-03-24T04:57:44.710Z,39.75
2019-03-24T05:00:15.118Z,44.42
2019-03-24T05:02:48.697Z,38.63
2019-03-24T05:05:19.341Z,41.15
2019-03-24T05:07:49.723Z,40.30
2019-03-24T05:10:32.072Z,42.78
2019-03-24T05:13:03.104Z,40.08
2019-03-24T05:15:34.117Z,42.88
2019-03-24T05:18:04.982Z,41.53
2019-03-24T05:20:37.568Z,40.98
2019-03-24T05:25:41.478Z,42.30
2019-03-24T05:28:12.133Z,38.95
2019-03-24T05:30:42.379Z,42.33
2019-03-24T05:33:13.500Z,38.25
2019-03-24T05:35:45.184Z,40.73
2019-03-24T05:38:16.256Z,44.23
2019-03-24T05:40:50.314Z,43.35
2019-03-24T05:43:24.030Z,42.70
2019-03-24T05:45:58.020Z,39.20
2019-03-24T05:48:29.094Z,39.63
2019-03-24T05:51:01.954Z,44.70
2019-03-24T05:53:35.724Z,39.80
2019-03-24T05:56:12.963Z,40.75
2019-03-24T05:58:45.502Z,38.85
2019-03-24T06:01:22.443Z,39.67
2019-03-24T06:03:53.672Z,39.92
2019-03-24T06:06:25.032Z,40.15
2019-03-24T06:08:59.141Z,44.20
2019-03-24T06:11:30.289Z,42.25
2019-03-24T06:14:05.896Z,45.30
2019-03-24T06:16:49.145Z,40.23
2019-03-24T06:19:21.913Z,45.03
2019-03-24T06:21:51.916Z,43.30
2019-03-24T06:24:22.410Z,37.70
2019-03-24T06:26:53.369Z,38.80
2019-03-24T06:29:48.463Z,39.60
2019-03-24T06:32:18.867Z,42.73
2019-03-24T06:34:49.451Z,41.10
2019-03-24T06:37:20.133Z,43.23
2019-03-24T06:39:50.473Z,42.15
2019-03-24T06:42:21.045Z,45.98
2019-03-24T06:44:51.716Z,42.67
2019-03-24T06:47:26.454Z,48.70
2019-03-24T06:49:57.005Z,45.88
2019-03-24T06:52:27.577Z,48.95
2019-03-24T06:54:58.466Z,40.03
2019-03-24T06:57:32.148Z,42.15
2019-03-24T07:00:05.862Z,49.27
2019-03-24T07:02:39.630Z,46.48
2019-03-24T07:05:11.303Z,52.48
2019-03-24T07:07:44.144Z,48.03
2019-03-24T07:10:33.208Z,53.13
2019-03-24T07:13:03.159Z,51.48
2019-03-24T07:15:33.659Z,45.58
2019-03-24T07:18:08.313Z,48.42
2019-03-24T07:20:36.291Z,56.65
2019-03-24T07:23:06.319Z,51.37
2019-03-24T07:25:36.140Z,56.15
2019-03-24T07:28:05.837Z,50.83
2019-03-24T07:30:35.311Z,49.18
2019-03-24T07:33:04.999Z,55.03
2019-03-24T07:35:34.566Z,55.67
2019-03-24T07:38:04.204Z,51.70
2019-03-24T07:40:33.726Z,54.63
2019-03-24T07:43:03.240Z,53.48
2019-03-24T07:45:32.925Z,53.23
2019-03-24T07:48:02.466Z,52.70
2019-03-24T07:50:32.010Z,55.80
2019-03-24T07:53:01.530Z,53.13
2019-03-24T07:55:31.066Z,55.45
2019-03-24T07:58:00.694Z,54.98
2019-03-24T08:00:35.166Z,57.73
2019-03-24T08:03:05.554Z,54.20
2019-03-24T08:05:35.201Z,56.55
2019-03-24T08:08:04.917Z,59.63
2019-03-24T08:10:34.571Z,62.40
2019-03-24T08:13:07.155Z,60.40
2019-03-24T08:18:05.193Z,57.17
2019-03-24T08:20:34.846Z,60.25
2019-03-24T08:23:04.627Z,55.60
2019-03-24T08:25:35.503Z,56.23
2019-03-24T08:28:05.317Z,57.70
2019-03-24T08:30:36.735Z,60.08
2019-03-24T08:33:06.692Z,55.50
2019-03-24T08:35:36.322Z,61.70
2019-03-24T08:38:06.502Z,51.30
2019-03-24T08:40:36.089Z,56.48
2019-03-24T08:43:05.901Z,55.52
2019-03-24T08:45:35.477Z,66.80
2019-03-24T08:48:05.484Z,59.58
2019-03-24T08:50:35.220Z,57.10
2019-03-24T08:53:04.870Z,60.25
2019-03-24T08:55:34.560Z,56.77
2019-03-24T08:58:04.268Z,57.70
2019-03-24T09:00:33.963Z,60.98
2019-03-24T09:03:03.705Z,58.58
2019-03-24T09:05:33.760Z,59.00
2019-03-24T09:08:03.612Z,59.25
2019-03-24T09:10:33.274Z,56.92
2019-03-24T09:13:02.846Z,59.65
2019-03-24T09:15:32.440Z,55.55
2019-03-24T09:18:01.983Z,60.23
2019-03-24T09:20:41.190Z,62.27
2019-03-24T09:23:02.957Z,62.53
2019-03-24T09:25:32.704Z,58.50
2019-03-24T09:28:02.423Z,61.90
2019-03-24T09:30:33.631Z,61.48
2019-03-24T09:33:03.379Z,57.65
2019-03-24T09:35:33.275Z,58.38
2019-03-24T09:38:03.112Z,64.85
2019-03-24T09:40:33.468Z,58.38
2019-03-24T09:43:04.205Z,64.07
2019-03-24T09:45:34.244Z,62.33
2019-03-24T09:48:04.673Z,61.25
2019-03-24T09:50:34.271Z,68.85
2019-03-24T09:53:04.002Z,61.37
2019-03-24T09:55:33.672Z,64.40
2019-03-24T09:58:03.240Z,63.28
2019-03-24T10:00:32.842Z,74.22
2019-03-24T10:03:02.432Z,63.68
2019-03-24T10:05:32.083Z,68.35
2019-03-24T10:08:01.551Z,66.07
2019-03-24T10:10:31.240Z,70.35
2019-03-24T10:13:00.775Z,65.35
2019-03-24T10:15:30.363Z,61.00
2019-03-24T10:17:59.960Z,66.65
2019-03-24T10:20:29.495Z,64.55
2019-03-24T10:22:58.970Z,65.50
2019-03-24T10:25:28.503Z,71.00
2019-03-24T10:27:58.159Z,75.57
2019-03-24T10:30:27.781Z,67.72
2019-03-24T10:32:57.497Z,68.92
2019-03-24T10:35:27.049Z,68.30
2019-03-24T10:37:56.646Z,65.42
2019-03-24T10:40:28.918Z,73.37
2019-03-24T10:42:57.643Z,68.95
2019-03-24T10:45:27.279Z,70.17
2019-03-24T10:47:56.885Z,65.52
2019-03-24T10:50:26.585Z,65.37
2019-03-24T10:52:56.267Z,70.00
2019-03-24T10:55:25.866Z,71.65
2019-03-24T10:57:55.410Z,65.37
2019-03-24T11:00:49.750Z,67.45
2019-03-24T11:03:19.392Z,68.95
2019-03-24T11:05:49.011Z,70.87
2019-03-24T11:08:18.709Z,66.05
2019-03-24T11:10:48.339Z,67.58
2019-03-24T11:13:17.967Z,68.28
2019-03-24T11:15:47.526Z,67.85
2019-03-24T11:18:17.086Z,68.95
2019-03-24T11:20:46.686Z,71.92
2019-03-24T11:23:16.139Z,69.03
2019-03-24T11:25:45.609Z,66.67
2019-03-24T11:28:15.107Z,70.78
2019-03-24T11:30:44.773Z,64.12
2019-03-24T11:33:14.239Z,68.60
2019-03-24T11:35:44.183Z,68.87
2019-03-24T11:38:13.742Z,65.10
2019-03-24T11:40:43.276Z,64.50
2019-03-24T11:43:12.835Z,66.45
2019-03-24T11:45:42.307Z,65.12
2019-03-24T11:48:11.787Z,67.78
2019-03-24T11:50:41.628Z,67.58
2019-03-24T11:53:11.506Z,64.60
2019-03-24T11:55:41.106Z,64.15
2019-03-24T11:58:10.794Z,66.25
2019-03-24T12:00:40.862Z,65.85
2019-03-24T12:03:10.501Z,64.80
2019-03-24T12:05:40.139Z,60.30
2019-03-24T12:08:09.844Z,58.73
2019-03-24T12:10:39.371Z,68.15
2019-03-24T12:13:08.992Z,70.57
2019-03-24T12:15:38.738Z,67.03
2019-03-24T12:18:08.298Z,62.88
2019-03-24T12:20:37.891Z,68.00
2019-03-24T12:23:07.591Z,66.47
2019-03-24T12:25:37.055Z,72.80
2019-03-24T12:28:06.757Z,64.92
2019-03-24T12:30:36.257Z,65.40
2019-03-24T12:33:06.196Z,68.28
2019-03-24T12:35:35.846Z,62.17
2019-03-24T12:38:05.523Z,64.70
2019-03-24T12:40:35.151Z,61.70
2019-03-24T12:43:04.819Z,64.42
2019-03-24T12:45:34.362Z,62.90
2019-03-24T12:48:04.184Z,64.27
2019-03-24T12:50:34.105Z,61.50
2019-03-24T12:53:03.794Z,61.73
2019-03-24T12:55:33.540Z,65.57
2019-03-24T12:58:03.320Z,70.45
2019-03-24T13:00:38.265Z,60.48
2019-03-24T13:03:08.173Z,57.05
2019-03-24T13:05:37.904Z,63.63
2019-03-24T13:08:18.077Z,57.38
2019-03-24T13:10:48.267Z,54.67
2019-03-24T13:13:18.119Z,58.35
2019-03-24T13:15:47.900Z,57.67
2019-03-24T13:18:17.634Z,57.83
2019-03-24T13:20:47.429Z,56.10
2019-03-24T13:23:17.056Z,57.60
2019-03-24T13:25:46.785Z,55.20
2019-03-24T13:28:16.504Z,59.93
2019-03-24T13:30:46.274Z,58.02
2019-03-24T13:33:16.057Z,50.33
2019-03-24T13:35:45.865Z,51.15
2019-03-24T13:38:15.527Z,58.90
2019-03-24T13:40:45.195Z,56.02
2019-03-24T13:43:14.958Z,56.63
2019-03-24T13:45:44.488Z,52.70
2019-03-24T13:48:14.218Z,55.95
2019-03-24T13:50:43.955Z,56.05
2019-03-24T13:53:13.651Z,51.13
2019-03-24T13:55:43.405Z,47.30
2019-03-24T13:58:13.211Z,51.45
2019-03-24T14:00:42.941Z,55.90
2019-03-24T14:03:12.531Z,54.85
2019-03-24T14:05:42.201Z,51.65
2019-03-24T14:08:11.993Z,52.38
2019-03-24T14:10:41.658Z,57.17
2019-03-24T14:13:11.389Z,52.10
2019-03-24T14:15:41.015Z,54.20
2019-03-24T14:18:10.819Z,51.70
2019-03-24T14:20:43.606Z,55.28
2019-03-24T14:23:11.802Z,52.17
2019-03-24T14:25:41.362Z,58.98
2019-03-24T14:28:10.981Z,58.73
2019-03-24T14:30:45.071Z,49.70
2019-03-24T14:33:15.050Z,54.63
2019-03-24T14:35:44.718Z,56.20
2019-03-24T14:38:14.459Z,53.42
2019-03-24T14:40:44.193Z,52.35
2019-03-24T14:43:13.836Z,52.88
2019-03-24T14:45:43.466Z,51.33
2019-03-24T14:48:13.090Z,47.80
2019-03-24T14:50:53.631Z,51.95
2019-03-24T14:53:13.953Z,52.83
2019-03-24T14:55:43.881Z,52.70
2019-03-24T14:58:14.058Z,52.38
2019-03-24T15:00:44.355Z,52.08
2019-03-24T15:03:14.223Z,53.50
2019-03-24T15:05:44.176Z,52.85
2019-03-24T15:08:14.070Z,48.42
2019-03-24T15:10:43.727Z,54.25
2019-03-24T15:13:13.385Z,49.83
2019-03-24T15:15:43.057Z,53.70
2019-03-24T15:18:12.760Z,47.05
2019-03-24T15:20:42.399Z,49.20
2019-03-24T15:23:12.155Z,48.08
2019-03-24T15:25:41.804Z,47.62
2019-03-24T15:28:11.432Z,50.33
2019-03-24T15:30:41.083Z,50.08
2019-03-24T15:33:10.652Z,52.25
2019-03-24T15:35:40.427Z,49.65
2019-03-24T15:38:09.998Z,51.45
2019-03-24T15:40:39.714Z,53.05
2019-03-24T15:43:09.436Z,54.20
2019-03-24T15:45:39.066Z,49.60
2019-03-24T15:48:08.803Z,51.08
2019-03-24T15:50:38.454Z,50.85
2019-03-24T15:53:08.209Z,55.75
2019-03-24T15:55:37.766Z,52.33
2019-03-24T15:58:07.312Z,56.98
2019-03-24T16:00:48.024Z,54.25
2019-03-24T16:03:17.846Z,54.13
2019-03-24T16:05:47.467Z,53.70
2019-03-24T16:08:17.248Z,63.40
2019-03-24T16:10:46.859Z,47.55
2019-03-24T16:13:16.381Z,49.30
2019-03-24T16:15:46.011Z,54.15
2019-03-24T16:18:15.707Z,54.85
2019-03-24T16:20:45.407Z,55.95
2019-03-24T16:23:15.034Z,50.75
2019-03-24T16:25:44.626Z,50.12
2019-03-24T16:28:14.170Z,53.23
2019-03-24T16:30:43.811Z,47.10
2019-03-24T16:33:13.443Z,50.75
2019-03-24T16:35:43.139Z,50.63
2019-03-24T16:38:12.790Z,52.65
2019-03-24T16:40:42.408Z,53.68
2019-03-24T16:43:12.020Z,53.80
2019-03-24T16:45:41.686Z,59.77
2019-03-24T16:48:11.298Z,53.58
2019-03-24T16:50:40.838Z,56.08
2019-03-24T16:53:10.438Z,55.73
2019-03-24T16:55:40.173Z,52.08
2019-03-24T16:58:09.776Z,55.55
2019-03-24T17:00:39.415Z,59.75
2019-03-24T17:03:09.056Z,58.83
2019-03-24T17:05:38.724Z,55.95
2019-03-24T17:08:08.423Z,68.62
2019-03-24T17:10:38.057Z,66.05
2019-03-24T17:13:07.619Z,62.75
2019-03-24T17:15:37.337Z,120.75
2019-03-24T17:18:07.188Z,99.58
2019-03-24T17:20:36.810Z,169.13
2019-03-24T17:23:06.504Z,70.92
2019-03-24T17:25:35.958Z,68.42
2019-03-24T17:28:05.630Z,79.60
2019-03-24T17:30:35.191Z,141.10
2019-03-24T17:33:23.680Z,73.05
2019-03-24T17:35:53.302Z,61.90
2019-03-24T17:38:22.810Z,59.55
2019-03-24T17:40:52.283Z,62.20
2019-03-24T17:43:21.814Z,59.98
2019-03-24T17:45:51.370Z,77.08
2019-03-24T17:48:20.922Z,67.85
2019-03-24T17:50:50.561Z,62.23
2019-03-24T17:53:20.119Z,71.37
2019-03-24T17:55:49.687Z,71.00
2019-03-24T17:58:19.320Z,69.27
2019-03-24T18:00:51.546Z,64.07
2019-03-24T18:03:21.081Z,66.33
2019-03-24T18:05:50.706Z,63.90
2019-03-24T18:08:20.418Z,65.92
2019-03-24T18:10:49.884Z,67.42
2019-03-24T18:13:19.434Z,70.45
2019-03-24T18:15:49.059Z,65.32
2019-03-24T18:18:18.701Z,69.92
2019-03-24T18:20:48.428Z,70.32
2019-03-24T18:23:18.100Z,70.67
2019-03-24T18:25:47.721Z,70.25
2019-03-24T18:28:17.450Z,70.97
2019-03-24T18:30:47.082Z,77.95
2019-03-24T18:33:16.711Z,72.12
2019-03-24T18:35:46.363Z,69.20
2019-03-24T18:38:16.012Z,69.85
2019-03-24T18:40:45.651Z,74.90
2019-03-24T18:43:15.334Z,83.20
2019-03-24T18:45:44.972Z,80.30
2019-03-24T18:48:14.717Z,77.22
2019-03-24T18:50:44.355Z,74.05
2019-03-24T18:53:14.087Z,77.32
2019-03-24T18:55:43.635Z,82.67
2019-03-24T18:58:13.195Z,76.37
2019-03-24T19:00:42.684Z,79.90
2019-03-24T19:03:12.368Z,76.85
2019-03-24T19:05:42.007Z,75.80
2019-03-24T19:08:11.995Z,79.17
2019-03-24T19:10:41.612Z,68.57
2019-03-24T19:13:11.225Z,78.55
2019-03-24T19:15:40.877Z,74.70
2019-03-24T19:18:10.431Z,70.75
2019-03-24T19:20:40.010Z,75.47
2019-03-24T19:23:09.541Z,73.12
2019-03-24T19:25:39.094Z,74.87
2019-03-24T19:28:08.647Z,71.97
2019-03-24T19:30:40.177Z,71.37
2019-03-24T19:33:09.985Z,70.45
2019-03-24T19:35:39.745Z,69.95
2019-03-24T19:38:09.413Z,74.25
2019-03-24T19:40:39.150Z,68.83
2019-03-24T19:43:08.806Z,71.50
2019-03-24T19:45:38.453Z,72.92
2019-03-24T19:48:08.139Z,72.67
2019-03-24T19:50:37.804Z,71.02
2019-03-24T19:53:07.739Z,72.10
2019-03-24T19:55:37.316Z,76.00
2019-03-24T19:58:06.971Z,73.87
2019-03-24T20:00:36.463Z,72.55
2019-03-24T20:03:06.186Z,66.92
2019-03-24T20:05:35.902Z,68.15
2019-03-24T20:08:05.515Z,74.53
2019-03-24T20:10:35.051Z,74.15
2019-03-24T20:13:04.797Z,77.10
2019-03-24T20:15:34.428Z,73.42
2019-03-24T20:18:04.414Z,70.12
2019-03-24T20:20:34.939Z,76.00
2019-03-24T20:23:04.671Z,74.77
2019-03-24T20:25:34.227Z,80.53
2019-03-24T20:28:03.929Z,77.50
2019-03-24T20:30:33.639Z,73.78
2019-03-24T20:33:03.327Z,82.65
2019-03-24T20:35:32.914Z,87.80
2019-03-24T20:38:02.450Z,80.53
2019-03-24T20:40:32.016Z,83.78
2019-03-24T20:43:01.583Z,85.00
2019-03-24T20:45:31.203Z,82.27
2019-03-24T20:48:00.667Z,77.50
2019-03-24T20:50:30.319Z,86.08
2019-03-24T20:53:05.644Z,80.25
2019-03-24T20:55:31.100Z,87.25
2019-03-24T20:58:00.673Z,82.50
2019-03-24T21:00:33.941Z,79.05
2019-03-24T21:03:05.124Z,88.30
2019-03-24T21:05:34.754Z,78.33
2019-03-24T21:08:04.450Z,85.40
2019-03-24T21:10:34.002Z,83.65
2019-03-24T21:13:03.688Z,81.17
2019-03-24T21:15:33.351Z,86.47
2019-03-24T21:18:03.159Z,87.08
2019-03-24T21:20:32.782Z,85.62
2019-03-24T21:23:02.404Z,88.55
2019-03-24T21:25:32.050Z,90.20
2019-03-24T21:28:01.689Z,88.50
2019-03-24T21:30:36.117Z,91.53
2019-03-24T21:33:06.258Z,91.70
2019-03-24T21:35:36.328Z,86.72
2019-03-24T21:38:06.600Z,86.92
2019-03-24T21:40:36.241Z,87.35
2019-03-24T21:43:06.594Z,86.30
2019-03-24T21:45:36.489Z,87.97
2019-03-24T21:48:06.240Z,89.45
2019-03-24T21:50:35.874Z,90.03
2019-03-24T21:53:06.023Z,89.30
2019-03-24T21:55:35.730Z,95.80
2019-03-24T21:58:05.506Z,96.72
2019-03-24T22:00:36.595Z,88.47
2019-03-24T22:03:06.739Z,93.20
2019-03-24T22:05:36.931Z,88.17
2019-03-24T22:08:06.680Z,90.17
2019-03-24T22:10:36.402Z,89.87
2019-03-24T22:13:06.344Z,90.03
2019-03-24T22:15:36.037Z,90.42
2019-03-24T22:18:07.303Z,92.88
2019-03-24T22:20:48.261Z,90.05
2019-03-24T22:23:08.302Z,92.40
2019-03-24T22:25:38.000Z,93.37
2019-03-24T22:28:07.774Z,88.87
2019-03-24T22:30:37.416Z,90.62
2019-03-24T22:33:06.874Z,91.82
2019-03-24T22:35:36.451Z,89.30
2019-03-24T22:38:06.144Z,87.95
2019-03-24T22:40:35.790Z,90.75
2019-03-24T22:43:05.511Z,87.82
2019-03-24T22:45:35.115Z,87.67
2019-03-24T22:48:04.731Z,93.05
2019-03-24T22:50:34.207Z,87.85
2019-03-24T22:53:03.955Z,90.45
2019-03-24T22:55:33.659Z,92.15
2019-03-24T22:58:03.204Z,96.82
2019-03-24T23:00:52.716Z,92.05
2019-03-24T23:03:25.137Z,91.02
2019-03-24T23:05:54.495Z,87.95
2019-03-24T23:08:24.098Z,93.85
2019-03-24T23:10:53.627Z,92.30
2019-03-24T23:13:23.192Z,79.75
2019-03-24T23:15:52.725Z,93.15
2019-03-24T23:18:22.267Z,86.87
2019-03-24T23:20:51.872Z,96.63
2019-03-24T23:23:21.469Z,91.55
2019-03-24T23:25:51.019Z,92.75
2019-03-24T23:28:20.482Z,86.80
2019-03-24T23:30:50.135Z,89.40
2019-03-24T23:33:19.742Z,91.90
2019-03-24T23:35:49.239Z,90.95
2019-03-24T23:38:18.880Z,93.40
2019-03-24T23:40:48.406Z,96.80
2019-03-24T23:43:18.018Z,90.70
2019-03-24T23:45:47.553Z,94.25
2019-03-24T23:48:17.236Z,92.17
2019-03-24T23:50:46.782Z,99.55
2019-03-24T23:53:16.309Z,89.75
2019-03-24T23:55:45.861Z,92.35
2019-03-24T23:58:15.408Z,95.28
